Time,TemperatureF,DewpointF,PressureIn,WindDirection,WindDirectionDegrees,WindSpeedMPH,WindSpeedGustMPH,Humidity,HourlyPrecipIn,Conditions,Clouds,dailyrainin,SoftwareType,DateUTC
2013-05-09 00:01:00,46.0,29.8,30.10,ENE,67,5.0,10.0,53,0.00,,,0.00,Weather View 32 v70,2013-05-09 06:01:00,
2013-05-09 00:07:00,46.0,29.8,30.10,ENE,67,4.0,10.0,53,0.00,,,0.00,Weather View 32 v70,2013-05-09 06:07:00,
2013-05-09 00:12:00,46.0,29.8,30.10,ENE,67,0.0,9.0,53,0.00,,,0.00,Weather View 32 v70,2013-05-09 06:12:00,
2013-05-09 00:17:00,46.0,29.8,30.10,ENE,67,0.0,8.0,53,0.00,,,0.00,Weather View 32 v70,2013-05-09 06:17:00,
2013-05-09 00:22:00,45.0,29.8,30.10,ENE,67,0.0,7.0,55,0.00,,,0.00,Weather View 32 v70,2013-05-09 06:22:00,
2013-05-09 00:27:00,45.0,31.9,30.10,ENE,67,0.0,7.0,60,0.00,,,0.00,Weather View 32 v70,2013-05-09 06:27:00,
2013-05-09 00:32:00,45.0,31.5,30.10,NNE,22,6.0,7.0,59,0.00,,,0.00,Weather View 32 v70,2013-05-09 06:32:00,
2013-05-09 00:37:00,44.0,30.2,30.10,NNE,22,5.0,7.0,58,0.00,,,0.00,Weather View 32 v70,2013-05-09 06:37:00,
2013-05-09 00:42:00,44.0,30.2,30.11,NNE,22,4.0,7.0,58,0.00,,,0.00,Weather View 32 v70,2013-05-09 06:42:00,
2013-05-09 00:47:00,44.0,30.2,30.11,NNE,22,0.0,7.0,58,0.00,,,0.00,Weather View 32 v70,2013-05-09 06:47:00,
2013-05-09 00:52:00,44.0,31.0,30.11,NNE,22,3.0,7.0,60,0.00,,,0.00,Weather View 32 v70,2013-05-09 06:52:00,
2013-05-09 00:57:00,44.0,30.6,30.11,NNE,22,3.0,7.0,59,0.00,,,0.00,Weather View 32 v70,2013-05-09 06:57:00,
2013-05-09 01:02:00,44.0,31.0,30.11,NNE,22,1.0,6.0,60,0.00,,,0.00,Weather View 32 v70,2013-05-09 07:02:00,
2013-05-09 01:07:00,43.0,30.5,30.11,NNE,22,2.0,6.0,61,0.00,,,0.00,Weather View 32 v70,2013-05-09 07:07:00,
2013-05-09 01:12:00,43.0,30.5,30.10,NNE,22,4.0,6.0,61,0.00,,,0.00,Weather View 32 v70,2013-05-09 07:12:00,
2013-05-09 01:17:00,43.0,30.0,30.10,NNE,22,4.0,6.0,60,0.00,,,0.00,Weather View 32 v70,2013-05-09 07:17:00,
2013-05-09 01:22:00,43.0,30.5,30.10,NNE,22,3.0,6.0,61,0.00,,,0.00,Weather View 32 v70,2013-05-09 07:22:00,
2013-05-09 01:27:00,43.0,30.9,30.10,NNE,22,4.0,6.0,62,0.00,,,0.00,Weather View 32 v70,2013-05-09 07:27:00,
2013-05-09 01:32:00,43.0,30.5,30.11,NNE,22,3.0,6.0,61,0.00,,,0.00,Weather View 32 v70,2013-05-09 07:32:00,
2013-05-09 01:37:00,43.0,30.0,30.11,NNE,22,0.0,6.0,60,0.00,,,0.00,Weather View 32 v70,2013-05-09 07:37:00,
2013-05-09 01:42:00,43.0,30.9,30.10,NNE,22,2.0,4.0,62,0.00,,,0.00,Weather View 32 v70,2013-05-09 07:42:00,
2013-05-09 01:47:00,42.0,29.5,30.10,NNE,22,0.0,4.0,61,0.00,,,0.00,Weather View 32 v70,2013-05-09 07:47:00,
2013-05-09 01:52:00,42.0,29.5,30.10,NNE,22,0.0,4.0,61,0.00,,,0.00,Weather View 32 v70,2013-05-09 07:52:00,
2013-05-09 01:57:00,42.0,29.9,30.10,NNE,22,0.0,4.0,62,0.00,,,0.00,Weather View 32 v70,2013-05-09 07:57:00,
2013-05-09 02:02:00,41.0,29.4,30.10,NNE,22,2.0,4.0,63,0.00,,,0.00,Weather View 32 v70,2013-05-09 08:02:00,
2013-05-09 02:07:00,41.0,29.7,30.10,NNE,22,0.0,4.0,64,0.00,,,0.00,Weather View 32 v70,2013-05-09 08:07:00,
2013-05-09 02:12:00,41.0,29.7,30.10,NNE,22,0.0,4.0,64,0.00,,,0.00,Weather View 32 v70,2013-05-09 08:12:00,
2013-05-09 02:17:00,41.0,29.7,30.10,NNE,22,0.0,4.0,64,0.00,,,0.00,Weather View 32 v70,2013-05-09 08:17:00,
2013-05-09 02:22:00,40.0,28.8,30.11,NNE,22,0.0,4.0,64,0.00,,,0.00,Weather View 32 v70,2013-05-09 08:22:00,
2013-05-09 02:27:00,40.0,29.5,30.11,NNE,22,0.0,4.0,66,0.00,,,0.00,Weather View 32 v70,2013-05-09 08:27:00,
2013-05-09 02:32:00,40.0,30.6,30.11,NNE,22,0.0,4.0,69,0.00,,,0.00,Weather View 32 v70,2013-05-09 08:32:00,
2013-05-09 02:37:00,40.0,31.3,30.11,NNE,22,0.0,3.0,71,0.00,,,0.00,Weather View 32 v70,2013-05-09 08:37:00,
2013-05-09 02:42:00,39.0,30.7,30.11,NNE,22,4.0,4.0,72,0.00,,,0.00,Weather View 32 v70,2013-05-09 08:42:00,
2013-05-09 02:47:00,39.0,30.4,30.11,NNE,22,2.0,4.0,71,0.00,,,0.00,Weather View 32 v70,2013-05-09 08:47:00,
2013-05-09 02:52:00,39.0,30.0,30.11,NNE,22,0.0,4.0,70,0.00,,,0.00,Weather View 32 v70,2013-05-09 08:52:00,
2013-05-09 02:57:00,39.0,30.4,30.11,NNE,22,1.0,4.0,71,0.00,,,0.00,Weather View 32 v70,2013-05-09 08:57:00,
2013-05-09 03:02:00,39.0,30.0,30.11,NNE,22,1.0,4.0,70,0.00,,,0.00,Weather View 32 v70,2013-05-09 09:02:00,
2013-05-09 03:07:00,39.0,30.0,30.11,NNE,22,0.0,4.0,70,0.00,,,0.00,Weather View 32 v70,2013-05-09 09:07:00,
2013-05-09 03:12:00,39.0,30.4,30.11,NNE,22,0.0,4.0,71,0.00,,,0.00,Weather View 32 v70,2013-05-09 09:12:00,
2013-05-09 03:16:00,39.0,30.4,30.11,NNE,22,0.0,4.0,71,0.00,,,0.00,Weather View 32 v70,2013-05-09 09:16:00,
2013-05-09 03:21:00,39.0,31.1,30.11,NNE,22,1.0,4.0,73,0.00,,,0.00,Weather View 32 v70,2013-05-09 09:21:00,
2013-05-09 03:26:00,39.0,30.4,30.11,NNE,22,2.0,4.0,71,0.00,,,0.00,Weather View 32 v70,2013-05-09 09:26:00,
2013-05-09 03:31:00,39.0,30.4,30.11,NNE,22,1.0,4.0,71,0.00,,,0.00,Weather View 32 v70,2013-05-09 09:31:00,
2013-05-09 03:36:00,39.0,30.7,30.11,NNE,22,0.0,4.0,72,0.00,,,0.00,Weather View 32 v70,2013-05-09 09:36:00,
2013-05-09 03:41:00,39.0,31.1,30.11,ENE,67,2.0,6.0,73,0.00,,,0.00,Weather View 32 v70,2013-05-09 09:41:00,
2013-05-09 03:46:00,39.0,31.4,30.11,ENE,67,5.0,7.0,74,0.00,,,0.00,Weather View 32 v70,2013-05-09 09:46:00,
2013-05-09 03:51:00,39.0,31.4,30.11,ENE,67,4.0,7.0,74,0.00,,,0.00,Weather View 32 v70,2013-05-09 09:51:00,
2013-05-09 03:56:00,39.0,31.4,30.11,ENE,67,5.0,7.0,74,0.00,,,0.00,Weather View 32 v70,2013-05-09 09:56:00,
2013-05-09 04:01:00,39.0,31.4,30.11,ENE,67,6.0,7.0,74,0.00,,,0.00,Weather View 32 v70,2013-05-09 10:01:00,
2013-05-09 04:06:00,39.0,31.4,30.11,NE,45,5.0,7.0,74,0.00,,,0.00,Weather View 32 v70,2013-05-09 10:06:00,
2013-05-09 04:11:00,39.0,31.4,30.11,NE,45,4.0,7.0,74,0.00,,,0.00,Weather View 32 v70,2013-05-09 10:11:00,
2013-05-09 04:16:00,39.0,31.7,30.11,NE,45,4.0,7.0,75,0.00,,,0.00,Weather View 32 v70,2013-05-09 10:16:00,
2013-05-09 04:21:00,39.0,31.7,30.11,NE,45,5.0,7.0,75,0.00,,,0.00,Weather View 32 v70,2013-05-09 10:21:00,
2013-05-09 04:26:00,39.0,32.1,30.11,ENE,67,5.0,7.0,76,0.00,,,0.00,Weather View 32 v70,2013-05-09 10:26:00,
2013-05-09 04:31:00,39.0,32.1,30.11,East,90,6.0,7.0,76,0.00,,,0.00,Weather View 32 v70,2013-05-09 10:31:00,
2013-05-09 04:36:00,38.0,31.7,30.11,East,90,5.0,8.0,78,0.00,,,0.00,Weather View 32 v70,2013-05-09 10:36:00,
2013-05-09 04:41:00,38.0,31.7,30.11,East,90,4.0,8.0,78,0.00,,,0.00,Weather View 32 v70,2013-05-09 10:41:00,
2013-05-09 04:46:00,38.0,32.1,30.11,East,90,4.0,8.0,79,0.00,,,0.00,Weather View 32 v70,2013-05-09 10:46:00,
2013-05-09 04:51:00,38.0,32.4,30.12,East,90,3.0,8.0,80,0.00,,,0.00,Weather View 32 v70,2013-05-09 10:51:00,
2013-05-09 04:56:00,38.0,32.4,30.12,East,90,0.0,8.0,80,0.00,,,0.00,Weather View 32 v70,2013-05-09 10:56:00,
2013-05-09 05:01:00,37.0,31.7,30.12,East,90,1.0,8.0,81,0.00,,,0.00,Weather View 32 v70,2013-05-09 11:01:00,
2013-05-09 05:06:00,37.0,32.0,30.12,East,90,3.0,8.0,82,0.00,,,0.00,Weather View 32 v70,2013-05-09 11:06:00,
2013-05-09 05:11:00,37.0,32.3,30.12,East,90,3.0,8.0,83,0.00,,,0.00,Weather View 32 v70,2013-05-09 11:11:00,
2013-05-09 05:16:00,37.0,32.6,30.12,East,90,3.0,8.0,84,0.00,,,0.00,Weather View 32 v70,2013-05-09 11:16:00,
2013-05-09 05:21:00,37.0,32.9,30.12,East,90,4.0,8.0,85,0.00,,,0.00,Weather View 32 v70,2013-05-09 11:21:00,
2013-05-09 05:26:00,36.0,32.5,30.12,East,90,5.0,8.0,87,0.00,,,0.00,Weather View 32 v70,2013-05-09 11:26:00,
2013-05-09 05:31:00,36.0,32.5,30.12,East,90,5.0,8.0,87,0.00,,,0.00,Weather View 32 v70,2013-05-09 11:31:00,
2013-05-09 05:36:00,36.0,32.2,30.12,ENE,67,5.0,8.0,86,0.00,,,0.00,Weather View 32 v70,2013-05-09 11:36:00,
2013-05-09 05:41:00,37.0,32.3,30.12,NE,45,4.0,8.0,83,0.00,,,0.00,Weather View 32 v70,2013-05-09 11:41:00,
2013-05-09 05:46:00,37.0,32.3,30.12,ENE,67,5.0,8.0,83,0.00,,,0.00,Weather View 32 v70,2013-05-09 11:46:00,
2013-05-09 05:51:00,37.0,31.7,30.12,East,90,7.0,10.0,81,0.00,,,0.00,Weather View 32 v70,2013-05-09 11:51:00,
2013-05-09 05:56:00,37.0,31.7,30.12,ENE,67,6.0,10.0,81,0.00,,,0.00,Weather View 32 v70,2013-05-09 11:56:00,
2013-05-09 06:01:00,37.0,31.7,30.12,ENE,67,8.0,10.0,81,0.00,,,0.00,Weather View 32 v70,2013-05-09 12:01:00,
2013-05-09 06:06:00,37.0,31.7,30.12,ENE,67,5.0,10.0,81,0.00,,,0.00,Weather View 32 v70,2013-05-09 12:06:00,
2013-05-09 06:11:00,37.0,31.7,30.12,East,90,5.0,10.0,81,0.00,,,0.00,Weather View 32 v70,2013-05-09 12:11:00,
2013-05-09 06:16:00,37.0,31.7,30.12,ENE,67,4.0,10.0,81,0.00,,,0.00,Weather View 32 v70,2013-05-09 12:16:00,
2013-05-09 06:21:00,37.0,31.7,30.12,East,90,6.0,10.0,81,0.00,,,0.00,Weather View 32 v70,2013-05-09 12:21:00,
2013-05-09 06:26:00,37.0,31.7,30.12,East,90,5.0,10.0,81,0.00,,,0.00,Weather View 32 v70,2013-05-09 12:26:00,
2013-05-09 06:31:00,37.0,32.0,30.12,East,90,6.0,10.0,82,0.00,,,0.00,Weather View 32 v70,2013-05-09 12:31:00,
2013-05-09 06:36:00,37.0,32.3,30.12,ESE,112,5.0,10.0,83,0.00,,,0.00,Weather View 32 v70,2013-05-09 12:36:00,
2013-05-09 06:41:00,36.0,31.6,30.13,ESE,112,3.0,10.0,84,0.00,,,0.00,Weather View 32 v70,2013-05-09 12:41:00,
2013-05-09 06:46:00,36.0,31.3,30.13,ESE,112,3.0,10.0,83,0.00,,,0.00,Weather View 32 v70,2013-05-09 12:46:00,
2013-05-09 06:51:00,36.0,31.0,30.13,East,90,5.0,10.0,82,0.00,,,0.00,Weather View 32 v70,2013-05-09 12:51:00,
2013-05-09 06:56:00,36.0,31.0,30.13,East,90,4.0,10.0,82,0.00,,,0.00,Weather View 32 v70,2013-05-09 12:56:00,
2013-05-09 07:01:00,36.0,30.7,30.13,East,90,4.0,10.0,81,0.00,,,0.00,Weather View 32 v70,2013-05-09 13:01:00,
2013-05-09 07:06:00,36.0,30.1,30.13,ESE,112,3.0,9.0,79,0.00,,,0.00,Weather View 32 v70,2013-05-09 13:06:00,
2013-05-09 07:11:00,37.0,30.5,30.13,ESE,112,3.0,7.0,77,0.00,,,0.00,Weather View 32 v70,2013-05-09 13:11:00,
2013-05-09 07:16:00,37.0,30.1,30.13,East,90,5.0,7.0,76,0.00,,,0.00,Weather View 32 v70,2013-05-09 13:16:00,
2013-05-09 07:21:00,37.0,29.1,30.13,East,90,5.0,8.0,73,0.00,,,0.00,Weather View 32 v70,2013-05-09 13:21:00,
2013-05-09 07:26:00,37.0,28.8,30.13,East,90,4.0,8.0,72,0.00,,,0.00,Weather View 32 v70,2013-05-09 13:26:00,
2013-05-09 07:31:00,38.0,29.1,30.14,East,90,5.0,10.0,70,0.00,,,0.00,Weather View 32 v70,2013-05-09 13:31:00,
2013-05-09 07:36:00,38.0,29.1,30.14,East,90,5.0,10.0,70,0.00,,,0.00,Weather View 32 v70,2013-05-09 13:36:00,
2013-05-09 07:41:00,38.0,28.7,30.13,East,90,4.0,10.0,69,0.00,,,0.00,Weather View 32 v70,2013-05-09 13:41:00,
2013-05-09 07:46:00,39.0,30.0,30.13,East,90,6.0,10.0,70,0.00,,,0.00,Weather View 32 v70,2013-05-09 13:46:00,
2013-05-09 07:51:00,39.0,29.7,30.14,East,90,4.0,10.0,69,0.00,,,0.00,Weather View 32 v70,2013-05-09 13:51:00,
2013-05-09 07:56:00,39.0,29.3,30.14,East,90,3.0,10.0,68,0.00,,,0.00,Weather View 32 v70,2013-05-09 13:56:00,
2013-05-09 08:01:00,40.0,30.3,30.14,East,90,3.0,10.0,68,0.00,,,0.00,Weather View 32 v70,2013-05-09 14:01:00,
2013-05-09 08:06:00,40.0,29.9,30.14,East,90,5.0,10.0,67,0.00,,,0.00,Weather View 32 v70,2013-05-09 14:06:00,
2013-05-09 08:11:00,40.0,29.9,30.13,East,90,3.0,10.0,67,0.00,,,0.00,Weather View 32 v70,2013-05-09 14:11:00,
2013-05-09 08:16:00,41.0,30.5,30.13,ESE,112,5.0,10.0,66,0.00,,,0.00,Weather View 32 v70,2013-05-09 14:16:00,
2013-05-09 08:21:00,41.0,30.1,30.14,East,90,5.0,10.0,65,0.00,,,0.00,Weather View 32 v70,2013-05-09 14:21:00,
2013-05-09 08:26:00,42.0,30.7,30.14,East,90,6.0,10.0,64,0.00,,,0.00,Weather View 32 v70,2013-05-09 14:26:00,
2013-05-09 08:31:00,42.0,29.9,30.14,East,90,6.0,9.0,62,0.00,,,0.00,Weather View 32 v70,2013-05-09 14:31:00,
2013-05-09 08:36:00,43.0,30.5,30.14,ESE,112,7.0,9.0,61,0.00,,,0.00,Weather View 32 v70,2013-05-09 14:36:00,
2013-05-09 08:41:00,43.0,30.0,30.14,East,90,6.0,9.0,60,0.00,,,0.00,Weather View 32 v70,2013-05-09 14:41:00,
2013-05-09 08:46:00,44.0,30.6,30.14,East,90,7.0,9.0,59,0.00,,,0.00,Weather View 32 v70,2013-05-09 14:46:00,
2013-05-09 08:51:00,44.0,30.2,30.14,East,90,5.0,9.0,58,0.00,,,0.00,Weather View 32 v70,2013-05-09 14:51:00,
2013-05-09 08:56:00,44.0,30.2,30.14,East,90,6.0,9.0,58,0.00,,,0.00,Weather View 32 v70,2013-05-09 14:56:00,
2013-05-09 09:01:00,45.0,30.2,30.14,SE,135,5.0,9.0,56,0.00,,,0.00,Weather View 32 v70,2013-05-09 15:01:00,
2013-05-09 09:06:00,45.0,29.8,30.14,East,90,6.0,9.0,55,0.00,,,0.00,Weather View 32 v70,2013-05-09 15:06:00,
2013-05-09 09:11:00,46.0,30.3,30.13,SE,135,3.0,9.0,54,0.00,,,0.00,Weather View 32 v70,2013-05-09 15:11:00,
2013-05-09 09:16:00,47.0,30.3,30.13,East,90,7.0,9.0,52,0.00,,,0.00,Weather View 32 v70,2013-05-09 15:16:00,
2013-05-09 09:21:00,47.0,29.8,30.14,East,90,5.0,9.0,51,0.00,,,0.00,Weather View 32 v70,2013-05-09 15:21:00,
2013-05-09 09:26:00,47.0,29.3,30.14,East,90,6.0,9.0,50,0.00,,,0.00,Weather View 32 v70,2013-05-09 15:26:00,
2013-05-09 09:31:00,48.0,30.2,30.13,East,90,5.0,9.0,50,0.00,,,0.00,Weather View 32 v70,2013-05-09 15:31:00,
2013-05-09 09:36:00,48.0,29.7,30.13,ESE,112,6.0,9.0,49,0.00,,,0.00,Weather View 32 v70,2013-05-09 15:36:00,
2013-05-09 09:41:00,48.0,29.7,30.13,ESE,112,5.0,9.0,49,0.00,,,0.00,Weather View 32 v70,2013-05-09 15:41:00,
2013-05-09 09:46:00,48.0,29.2,30.13,ESE,112,6.0,9.0,48,0.00,,,0.00,Weather View 32 v70,2013-05-09 15:46:00,
2013-05-09 09:51:00,48.0,29.2,30.13,East,90,4.0,9.0,48,0.00,,,0.00,Weather View 32 v70,2013-05-09 15:51:00,
2013-05-09 09:56:00,49.0,30.1,30.13,SE,135,6.0,9.0,48,0.00,,,0.00,Weather View 32 v70,2013-05-09 15:56:00,
2013-05-09 10:01:00,49.0,29.6,30.13,SSE,157,4.0,9.0,47,0.00,,,0.00,Weather View 32 v70,2013-05-09 16:01:00,
2013-05-09 10:06:00,50.0,30.0,30.13,SE,135,5.0,9.0,46,0.00,,,0.00,Weather View 32 v70,2013-05-09 16:06:00,
2013-05-09 10:11:00,50.0,30.0,30.13,SE,135,7.0,9.0,46,0.00,,,0.00,Weather View 32 v70,2013-05-09 16:11:00,
2013-05-09 10:16:00,51.0,29.8,30.13,ESE,112,3.0,9.0,44,0.00,,,0.00,Weather View 32 v70,2013-05-09 16:16:00,
2013-05-09 10:21:00,51.0,29.2,30.13,SE,135,2.0,9.0,43,0.00,,,0.00,Weather View 32 v70,2013-05-09 16:21:00,
2013-05-09 10:26:00,52.0,29.6,30.13,East,90,7.0,9.0,42,0.00,,,0.00,Weather View 32 v70,2013-05-09 16:26:00,
2013-05-09 10:31:00,53.0,29.3,30.12,East,90,4.0,8.0,40,0.00,,,0.00,Weather View 32 v70,2013-05-09 16:31:00,
2013-05-09 10:36:00,53.0,28.7,30.12,East,90,0.0,8.0,39,0.00,,,0.00,Weather View 32 v70,2013-05-09 16:36:00,
2013-05-09 10:41:00,54.0,28.9,30.12,SE,135,3.0,8.0,38,0.00,,,0.00,Weather View 32 v70,2013-05-09 16:41:00,
2013-05-09 10:46:00,55.0,28.5,30.12,South,180,6.0,8.0,36,0.00,,,0.00,Weather View 32 v70,2013-05-09 16:46:00,
2013-05-09 10:51:00,55.0,28.5,30.13,East,90,4.0,8.0,36,0.00,,,0.00,Weather View 32 v70,2013-05-09 16:51:00,
2013-05-09 10:56:00,56.0,28.0,30.13,East,90,0.0,8.0,34,0.00,,,0.00,Weather View 32 v70,2013-05-09 16:56:00,
2013-05-09 11:01:00,56.0,27.2,30.12,East,90,0.0,8.0,33,0.00,,,0.00,Weather View 32 v70,2013-05-09 17:01:00,
2013-05-09 11:06:00,57.0,28.9,30.12,North,360,5.0,8.0,34,0.00,,,0.00,Weather View 32 v70,2013-05-09 17:06:00,
2013-05-09 11:11:00,57.0,29.6,30.12,North,360,8.0,8.0,35,0.00,,,0.00,Weather View 32 v70,2013-05-09 17:11:00,
2013-05-09 11:16:00,57.0,30.9,30.12,NNE,22,0.0,9.0,37,0.00,,,0.00,Weather View 32 v70,2013-05-09 17:16:00,
2013-05-09 11:21:00,57.0,28.9,30.12,NNE,22,5.0,9.0,34,0.00,,,0.00,Weather View 32 v70,2013-05-09 17:21:00,
2013-05-09 11:26:00,57.0,30.9,30.12,North,360,4.0,10.0,37,0.00,,,0.00,Weather View 32 v70,2013-05-09 17:26:00,
2013-05-09 11:31:00,56.0,31.3,30.12,NE,45,7.0,10.0,39,0.00,,,0.00,Weather View 32 v70,2013-05-09 17:31:00,
2013-05-09 11:36:00,55.0,30.4,30.12,NE,45,9.0,12.0,39,0.00,,,0.00,Weather View 32 v70,2013-05-09 17:36:00,
2013-05-09 11:41:00,55.0,30.4,30.12,NW,315,6.0,12.0,39,0.00,,,0.00,Weather View 32 v70,2013-05-09 17:41:00,
2013-05-09 11:46:00,55.0,29.8,30.12,NW,315,7.0,12.0,38,0.00,,,0.00,Weather View 32 v70,2013-05-09 17:46:00,
2013-05-09 11:51:00,56.0,31.3,30.12,East,90,10.0,12.0,39,0.00,,,0.00,Weather View 32 v70,2013-05-09 17:51:00,
2013-05-09 11:56:00,56.0,30.0,30.12,East,90,5.0,13.0,37,0.00,,,0.00,Weather View 32 v70,2013-05-09 17:56:00,
2013-05-09 12:01:00,57.0,29.6,30.11,NE,45,2.0,13.0,35,0.00,,,0.00,Weather View 32 v70,2013-05-09 18:01:00,
2013-05-09 12:06:00,58.0,29.7,30.11,ENE,67,9.0,13.0,34,0.00,,,0.00,Weather View 32 v70,2013-05-09 18:06:00,
2013-05-09 12:11:00,58.0,30.4,30.11,NE,45,8.0,13.0,35,0.00,,,0.00,Weather View 32 v70,2013-05-09 18:11:00,
2013-05-09 12:16:00,58.0,31.1,30.11,East,90,9.0,13.0,36,0.00,,,0.00,Weather View 32 v70,2013-05-09 18:16:00,
2013-05-09 12:21:00,59.0,29.9,30.11,East,90,3.0,13.0,33,0.00,,,0.00,Weather View 32 v70,2013-05-09 18:21:00,
2013-05-09 12:26:00,59.0,29.9,30.11,NE,45,3.0,13.0,33,0.00,,,0.00,Weather View 32 v70,2013-05-09 18:26:00,
2013-05-09 12:31:00,61.0,30.1,30.10,ESE,112,7.0,13.0,31,0.00,,,0.00,Weather View 32 v70,2013-05-09 18:31:00,
2013-05-09 12:36:00,61.0,29.3,30.10,NE,45,1.0,14.0,30,0.00,,,0.00,Weather View 32 v70,2013-05-09 18:36:00,
2013-05-09 12:41:00,61.0,29.3,30.10,SE,135,5.0,14.0,30,0.00,,,0.00,Weather View 32 v70,2013-05-09 18:41:00,
2013-05-09 12:46:00,62.0,30.1,30.10,NNE,22,5.0,14.0,30,0.00,,,0.00,Weather View 32 v70,2013-05-09 18:46:00,
2013-05-09 12:51:00,62.0,29.3,30.10,WNW,292,2.0,14.0,29,0.00,,,0.00,Weather View 32 v70,2013-05-09 18:51:00,
2013-05-09 12:56:00,61.0,30.1,30.10,North,360,5.0,14.0,31,0.00,,,0.00,Weather View 32 v70,2013-05-09 18:56:00,
2013-05-09 13:01:00,62.0,32.5,30.10,NNW,337,10.0,14.0,33,0.00,,,0.00,Weather View 32 v70,2013-05-09 19:01:00,
2013-05-09 13:06:00,60.0,32.2,30.10,North,360,12.0,14.0,35,0.00,,,0.00,Weather View 32 v70,2013-05-09 19:06:00,
2013-05-09 13:11:00,58.0,31.1,30.10,North,360,13.0,20.0,36,0.00,,,0.00,Weather View 32 v70,2013-05-09 19:11:00,
2013-05-09 13:16:00,58.0,31.1,30.10,NNE,22,12.0,20.0,36,0.00,,,0.00,Weather View 32 v70,2013-05-09 19:16:00,
2013-05-09 13:21:00,57.0,31.6,30.10,NNE,22,10.0,20.0,38,0.00,,,0.00,Weather View 32 v70,2013-05-09 19:21:00,
2013-05-09 13:26:00,58.0,31.1,30.10,NNE,22,11.0,20.0,36,0.00,,,0.00,Weather View 32 v70,2013-05-09 19:26:00,
2013-05-09 13:31:00,57.0,30.3,30.10,NNE,22,10.0,20.0,36,0.00,,,0.00,Weather View 32 v70,2013-05-09 19:31:00,
2013-05-09 13:36:00,58.0,31.1,30.10,NW,315,10.0,20.0,36,0.00,,,0.00,Weather View 32 v70,2013-05-09 19:36:00,
2013-05-09 13:41:00,57.0,30.9,30.10,North,360,8.0,20.0,37,0.00,,,0.00,Weather View 32 v70,2013-05-09 19:41:00,
2013-05-09 13:46:00,58.0,31.8,30.10,NNW,337,8.0,20.0,37,0.00,,,0.00,Weather View 32 v70,2013-05-09 19:46:00,
2013-05-09 13:51:00,58.0,31.1,30.11,NW,315,7.0,20.0,36,0.00,,,0.00,Weather View 32 v70,2013-05-09 19:51:00,
2013-05-09 13:56:00,60.0,31.5,30.11,NW,315,11.0,20.0,34,0.00,,,0.00,Weather View 32 v70,2013-05-09 19:56:00,
2013-05-09 14:01:00,60.0,30.0,30.10,NW,315,3.0,20.0,32,0.00,,,0.00,Weather View 32 v70,2013-05-09 20:01:00,
2013-05-09 14:06:00,61.0,30.1,30.10,SW,225,6.0,20.0,31,0.00,,,0.00,Weather View 32 v70,2013-05-09 20:06:00,
2013-05-09 14:11:00,62.0,31.7,30.09,NNE,22,10.0,20.0,32,0.00,,,0.00,Weather View 32 v70,2013-05-09 20:11:00,
2013-05-09 14:16:00,61.0,33.8,30.09,West,270,7.0,19.0,36,0.00,,,0.00,Weather View 32 v70,2013-05-09 20:16:00,
2013-05-09 14:21:00,61.0,33.8,30.09,NW,315,12.0,18.0,36,0.00,,,0.00,Weather View 32 v70,2013-05-09 20:21:00,
2013-05-09 14:26:00,62.0,34.7,30.09,West,270,8.0,18.0,36,0.00,,,0.00,Weather View 32 v70,2013-05-09 20:26:00,
2013-05-09 14:31:00,62.0,31.7,30.09,NW,315,7.0,18.0,32,0.00,,,0.00,Weather View 32 v70,2013-05-09 20:31:00,
2013-05-09 14:36:00,62.0,32.5,30.09,North,360,8.0,18.0,33,0.00,,,0.00,Weather View 32 v70,2013-05-09 20:36:00,
2013-05-09 14:41:00,62.0,31.7,30.09,West,270,9.0,18.0,32,0.00,,,0.00,Weather View 32 v70,2013-05-09 20:41:00,
2013-05-09 14:46:00,62.0,32.5,30.09,WNW,292,14.0,18.0,33,0.00,,,0.00,Weather View 32 v70,2013-05-09 20:46:00,
2013-05-09 14:51:00,63.0,33.4,30.08,West,270,9.0,18.0,33,0.00,,,0.00,Weather View 32 v70,2013-05-09 20:51:00,
2013-05-09 14:56:00,63.0,32.6,30.08,NW,315,6.0,18.0,32,0.00,,,0.00,Weather View 32 v70,2013-05-09 20:56:00,
2013-05-09 15:01:00,63.0,34.1,30.07,West,270,7.0,18.0,34,0.00,,,0.00,Weather View 32 v70,2013-05-09 21:01:00,
2013-05-09 15:06:00,62.0,31.7,30.07,West,270,7.0,20.0,32,0.00,,,0.00,Weather View 32 v70,2013-05-09 21:06:00,
2013-05-09 15:11:00,62.0,32.5,30.07,WSW,247,8.0,20.0,33,0.00,,,0.00,Weather View 32 v70,2013-05-09 21:11:00,
2013-05-09 15:16:00,62.0,31.7,30.07,NW,315,5.0,20.0,32,0.00,,,0.00,Weather View 32 v70,2013-05-09 21:16:00,
2013-05-09 15:21:00,62.0,31.0,30.07,NW,315,10.0,20.0,31,0.00,,,0.00,Weather View 32 v70,2013-05-09 21:21:00,
2013-05-09 15:26:00,63.0,32.6,30.07,NW,315,11.0,20.0,32,0.00,,,0.00,Weather View 32 v70,2013-05-09 21:26:00,
2013-05-09 15:31:00,63.0,30.2,30.07,WSW,247,8.0,20.0,29,0.00,,,0.00,Weather View 32 v70,2013-05-09 21:31:00,
2013-05-09 15:36:00,63.0,30.2,30.07,West,270,7.0,20.0,29,0.00,,,0.00,Weather View 32 v70,2013-05-09 21:36:00,
2013-05-09 15:41:00,63.0,31.0,30.07,WNW,292,11.0,20.0,30,0.00,,,0.00,Weather View 32 v70,2013-05-09 21:41:00,
2013-05-09 15:46:00,63.0,30.2,30.07,West,270,15.0,20.0,29,0.00,,,0.00,Weather View 32 v70,2013-05-09 21:46:00,
2013-05-09 15:51:00,64.0,30.2,30.06,WSW,247,5.0,20.0,28,0.00,,,0.00,Weather View 32 v70,2013-05-09 21:51:00,
2013-05-09 15:56:00,64.0,31.0,30.06,WNW,292,10.0,20.0,29,0.00,,,0.00,Weather View 32 v70,2013-05-09 21:56:00,
2013-05-09 16:01:00,64.0,29.3,30.06,WSW,247,10.0,20.0,27,0.00,,,0.00,Weather View 32 v70,2013-05-09 22:01:00,
2013-05-09 16:06:00,64.0,30.2,30.06,West,270,8.0,19.0,28,0.00,,,0.00,Weather View 32 v70,2013-05-09 22:06:00,
2013-05-09 16:11:00,64.0,31.0,30.06,West,270,7.0,19.0,29,0.00,,,0.00,Weather View 32 v70,2013-05-09 22:11:00,
2013-05-09 16:16:00,64.0,29.3,30.06,WNW,292,4.0,19.0,27,0.00,,,0.00,Weather View 32 v70,2013-05-09 22:16:00,
2013-05-09 16:21:00,63.0,31.0,30.06,West,270,7.0,19.0,30,0.00,,,0.00,Weather View 32 v70,2013-05-09 22:21:00,
2013-05-09 16:26:00,63.0,30.2,30.06,West,270,12.0,21.0,29,0.00,,,0.00,Weather View 32 v70,2013-05-09 22:26:00,
2013-05-09 16:31:00,64.0,31.0,30.06,West,270,8.0,21.0,29,0.00,,,0.00,Weather View 32 v70,2013-05-09 22:31:00,
2013-05-09 16:36:00,64.0,28.4,30.06,WSW,247,8.0,21.0,26,0.00,,,0.00,Weather View 32 v70,2013-05-09 22:36:00,
2013-05-09 16:41:00,65.0,32.7,30.06,West,270,7.0,21.0,30,0.00,,,0.00,Weather View 32 v70,2013-05-09 22:41:00,
2013-05-09 16:46:00,65.0,30.1,30.06,NW,315,11.0,21.0,27,0.00,,,0.00,Weather View 32 v70,2013-05-09 22:46:00,
2013-05-09 16:51:00,65.0,31.9,30.06,NNW,337,3.0,21.0,29,0.00,,,0.00,Weather View 32 v70,2013-05-09 22:51:00,
2013-05-09 16:56:00,64.0,33.5,30.06,NW,315,3.0,21.0,32,0.00,,,0.00,Weather View 32 v70,2013-05-09 22:56:00,
2013-05-09 17:01:00,64.0,32.7,30.06,West,270,3.0,21.0,31,0.00,,,0.00,Weather View 32 v70,2013-05-09 23:01:00,
2013-05-09 17:06:00,63.0,31.8,30.06,NW,315,7.0,21.0,31,0.00,,,0.00,Weather View 32 v70,2013-05-09 23:06:00,
2013-05-09 17:11:00,63.0,32.6,30.06,West,270,3.0,21.0,32,0.00,,,0.00,Weather View 32 v70,2013-05-09 23:11:00,
2013-05-09 17:16:00,62.0,31.0,30.06,West,270,7.0,21.0,31,0.00,,,0.00,Weather View 32 v70,2013-05-09 23:16:00,
2013-05-09 17:21:00,62.0,31.0,30.07,NW,315,4.0,21.0,31,0.00,,,0.00,Weather View 32 v70,2013-05-09 23:21:00,
2013-05-09 17:26:00,62.0,32.5,30.07,West,270,6.0,21.0,33,0.00,,,0.00,Weather View 32 v70,2013-05-09 23:26:00,
2013-05-09 17:31:00,62.0,32.5,30.06,West,270,8.0,17.0,33,0.00,,,0.00,Weather View 32 v70,2013-05-09 23:31:00,
2013-05-09 17:36:00,61.0,33.8,30.06,NW,315,3.0,17.0,36,0.00,,,0.00,Weather View 32 v70,2013-05-09 23:36:00,
2013-05-09 17:41:00,61.0,31.6,30.07,NW,315,7.0,17.0,33,0.00,,,0.00,Weather View 32 v70,2013-05-09 23:41:00,
2013-05-09 17:46:00,61.0,31.6,30.07,NW,315,6.0,17.0,33,0.00,,,0.00,Weather View 32 v70,2013-05-09 23:46:00,
2013-05-09 17:51:00,61.0,31.6,30.07,NW,315,6.0,16.0,33,0.00,,,0.00,Weather View 32 v70,2013-05-09 23:51:00,
2013-05-09 17:56:00,61.0,31.6,30.07,West,270,8.0,16.0,33,0.00,,,0.00,Weather View 32 v70,2013-05-09 23:56:00,
2013-05-09 18:01:00,61.0,30.1,30.07,WSW,247,3.0,16.0,31,0.00,,,0.00,Weather View 32 v70,2013-05-10 00:01:00,
2013-05-09 18:06:00,61.0,30.9,30.07,West,270,8.0,16.0,32,0.00,,,0.00,Weather View 32 v70,2013-05-10 00:06:00,
2013-05-09 18:11:00,61.0,31.6,30.07,West,270,3.0,15.0,33,0.00,,,0.00,Weather View 32 v70,2013-05-10 00:11:00,
2013-05-09 18:16:00,61.0,31.6,30.07,NW,315,4.0,15.0,33,0.00,,,0.00,Weather View 32 v70,2013-05-10 00:16:00,
2013-05-09 18:21:00,60.0,32.9,30.07,North,360,17.0,17.0,36,0.00,,,0.00,Weather View 32 v70,2013-05-10 00:21:00,
2013-05-09 18:26:00,60.0,32.2,30.07,North,360,15.0,17.0,35,0.00,,,0.00,Weather View 32 v70,2013-05-10 00:26:00,
2013-05-09 18:31:00,60.0,32.9,30.08,North,360,7.0,17.0,36,0.00,,,0.00,Weather View 32 v70,2013-05-10 00:31:00,
2013-05-09 18:36:00,60.0,32.9,30.08,North,360,11.0,17.0,36,0.00,,,0.00,Weather View 32 v70,2013-05-10 00:36:00,
2013-05-09 18:41:00,59.0,32.7,30.08,North,360,12.0,17.0,37,0.00,,,0.00,Weather View 32 v70,2013-05-10 00:41:00,
2013-05-09 18:46:00,59.0,32.0,30.08,North,360,12.0,17.0,36,0.00,,,0.00,Weather View 32 v70,2013-05-10 00:46:00,
2013-05-09 18:51:00,59.0,32.7,30.08,North,360,10.0,17.0,37,0.00,,,0.00,Weather View 32 v70,2013-05-10 00:51:00,
2013-05-09 18:56:00,58.0,34.4,30.08,NNE,22,12.0,24.0,41,0.00,,,0.00,Weather View 32 v70,2013-05-10 00:56:00,
2013-05-09 19:01:00,57.0,34.7,30.08,North,360,12.0,24.0,43,0.00,,,0.00,Weather View 32 v70,2013-05-10 01:01:00,
2013-05-09 19:06:00,57.0,34.7,30.08,North,360,14.0,24.0,43,0.00,,,0.00,Weather View 32 v70,2013-05-10 01:06:00,
2013-05-09 19:11:00,56.0,34.3,30.09,NNE,22,9.0,24.0,44,0.00,,,0.00,Weather View 32 v70,2013-05-10 01:11:00,
2013-05-09 19:16:00,56.0,34.3,30.09,NNE,22,10.0,24.0,44,0.00,,,0.00,Weather View 32 v70,2013-05-10 01:16:00,
2013-05-09 19:21:00,56.0,34.3,30.09,NE,45,9.0,24.0,44,0.00,,,0.00,Weather View 32 v70,2013-05-10 01:21:00,
2013-05-09 19:26:00,55.0,33.4,30.09,NE,45,6.0,24.0,44,0.00,,,0.00,Weather View 32 v70,2013-05-10 01:26:00,
2013-05-09 19:31:00,55.0,33.4,30.10,NE,45,7.0,24.0,44,0.00,,,0.00,Weather View 32 v70,2013-05-10 01:31:00,
2013-05-09 19:35:00,55.0,34.0,30.10,NE,45,6.0,24.0,45,0.00,,,0.00,Weather View 32 v70,2013-05-10 01:35:00,
2013-05-09 19:40:00,55.0,34.0,30.12,ENE,67,7.0,24.0,45,0.00,,,0.00,Weather View 32 v70,2013-05-10 01:40:00,
2013-05-09 19:45:00,55.0,34.0,30.12,NE,45,5.0,24.0,45,0.00,,,0.00,Weather View 32 v70,2013-05-10 01:45:00,
2013-05-09 19:50:00,55.0,34.0,30.12,NE,45,4.0,24.0,45,0.00,,,0.00,Weather View 32 v70,2013-05-10 01:50:00,
2013-05-09 19:55:00,55.0,33.4,30.12,NNE,22,3.0,21.0,44,0.00,,,0.00,Weather View 32 v70,2013-05-10 01:55:00,
2013-05-09 20:00:00,55.0,34.0,30.12,NNE,22,4.0,21.0,45,0.00,,,0.00,Weather View 32 v70,2013-05-10 02:00:00,
2013-05-09 20:05:00,55.0,34.6,30.12,North,360,5.0,21.0,46,0.00,,,0.00,Weather View 32 v70,2013-05-10 02:05:00,
2013-05-09 20:10:00,55.0,34.6,30.12,North,360,3.0,21.0,46,0.00,,,0.00,Weather View 32 v70,2013-05-10 02:10:00,
2013-05-09 20:15:00,55.0,35.1,30.12,North,360,1.0,20.0,47,0.00,,,0.00,Weather View 32 v70,2013-05-10 02:15:00,
2013-05-09 20:20:00,55.0,35.1,30.13,North,360,0.0,20.0,47,0.00,,,0.00,Weather View 32 v70,2013-05-10 02:20:00,
2013-05-09 20:25:00,54.0,34.7,30.13,North,360,0.0,16.0,48,0.00,,,0.00,Weather View 32 v70,2013-05-10 02:25:00,
2013-05-09 20:30:00,54.0,34.7,30.13,NNW,337,0.0,16.0,48,0.00,,,0.00,Weather View 32 v70,2013-05-10 02:30:00,
2013-05-09 20:35:00,54.0,34.7,30.13,ESE,112,5.0,10.0,48,0.00,,,0.00,Weather View 32 v70,2013-05-10 02:35:00,
2013-05-09 20:40:00,54.0,34.7,30.13,ESE,112,4.0,10.0,48,0.00,,,0.00,Weather View 32 v70,2013-05-10 02:40:00,
2013-05-09 20:45:00,54.0,34.7,30.13,SE,135,4.0,11.0,48,0.00,,,0.00,Weather View 32 v70,2013-05-10 02:45:00,
2013-05-09 20:50:00,54.0,34.7,30.13,East,90,6.0,12.0,48,0.00,,,0.00,Weather View 32 v70,2013-05-10 02:50:00,
2013-05-09 20:55:00,54.0,34.7,30.13,East,90,6.0,12.0,48,0.00,,,0.00,Weather View 32 v70,2013-05-10 02:55:00,
2013-05-09 21:00:00,54.0,34.7,30.14,East,90,7.0,12.0,48,0.00,,,0.00,Weather View 32 v70,2013-05-10 03:00:00,
2013-05-09 21:05:00,54.0,35.2,30.14,SE,135,8.0,12.0,49,0.00,,,0.00,Weather View 32 v70,2013-05-10 03:05:00,
2013-05-09 21:10:00,53.0,34.8,30.15,SE,135,3.0,12.0,50,0.00,,,0.00,Weather View 32 v70,2013-05-10 03:10:00,
2013-05-09 21:15:00,53.0,36.3,30.15,SE,135,6.0,12.0,53,0.00,,,0.00,Weather View 32 v70,2013-05-10 03:15:00,
2013-05-09 21:20:00,53.0,37.2,30.15,SE,135,4.0,12.0,55,0.00,,,0.00,Weather View 32 v70,2013-05-10 03:20:00,
2013-05-09 21:25:00,53.0,38.6,30.15,ESE,112,4.0,12.0,58,0.00,,,0.00,Weather View 32 v70,2013-05-10 03:25:00,
2013-05-09 21:30:00,53.0,39.5,30.15,SE,135,3.0,12.0,60,0.00,,,0.00,Weather View 32 v70,2013-05-10 03:30:00,
2013-05-09 21:35:00,52.0,39.4,30.15,SE,135,3.0,12.0,62,0.00,,,0.00,Weather View 32 v70,2013-05-10 03:35:00,
2013-05-09 21:40:00,52.0,39.8,30.15,SE,135,3.0,12.0,63,0.00,,,0.00,Weather View 32 v70,2013-05-10 03:40:00,
2013-05-09 21:45:00,52.0,40.6,30.15,SE,135,0.0,12.0,65,0.00,,,0.00,Weather View 32 v70,2013-05-10 03:45:00,
2013-05-09 21:50:00,51.0,40.0,30.16,SE,135,1.0,10.0,66,0.00,,,0.00,Weather View 32 v70,2013-05-10 03:50:00,
2013-05-09 21:55:00,51.0,40.4,30.16,SE,135,0.0,10.0,67,0.00,,,0.00,Weather View 32 v70,2013-05-10 03:55:00,
2013-05-09 22:00:00,51.0,40.0,30.16,SE,135,1.0,10.0,66,0.00,,,0.00,Weather View 32 v70,2013-05-10 04:00:00,
2013-05-09 22:01:00,51.0,40.0,30.16,SE,135,1.0,10.0,66,0.00,,,0.00,Weather View 32 v70,2013-05-10 04:01:00,
2013-05-09 22:06:00,51.0,40.0,30.16,East,90,3.0,9.0,66,0.00,,,0.00,Weather View 32 v70,2013-05-10 04:06:00,
2013-05-09 22:11:00,50.0,38.7,30.16,East,90,2.0,8.0,65,0.00,,,0.00,Weather View 32 v70,2013-05-10 04:11:00,
2013-05-09 22:16:00,50.0,38.7,30.16,East,90,0.0,7.0,65,0.00,,,0.00,Weather View 32 v70,2013-05-10 04:16:00,
2013-05-09 22:21:00,50.0,38.7,30.16,East,90,0.0,7.0,65,0.00,,,0.00,Weather View 32 v70,2013-05-10 04:21:00,
2013-05-09 22:26:00,50.0,39.5,30.16,East,90,2.0,7.0,67,0.00,,,0.00,Weather View 32 v70,2013-05-10 04:26:00,
2013-05-09 22:31:00,50.0,39.1,30.17,East,90,2.0,7.0,66,0.00,,,0.00,Weather View 32 v70,2013-05-10 04:31:00,
2013-05-09 22:36:00,49.0,38.5,30.17,East,90,0.0,5.0,67,0.00,,,0.00,Weather View 32 v70,2013-05-10 04:36:00,
2013-05-09 22:41:00,49.0,38.5,30.17,East,90,0.0,4.0,67,0.00,,,0.00,Weather View 32 v70,2013-05-10 04:41:00,
2013-05-09 22:46:00,49.0,38.5,30.17,East,90,0.0,4.0,67,0.00,,,0.00,Weather View 32 v70,2013-05-10 04:46:00,
2013-05-09 22:51:00,49.0,38.1,30.17,East,90,0.0,4.0,66,0.00,,,0.00,Weather View 32 v70,2013-05-10 04:51:00,
2013-05-09 22:56:00,49.0,38.5,30.17,East,90,0.0,4.0,67,0.00,,,0.00,Weather View 32 v70,2013-05-10 04:56:00,
2013-05-09 23:01:00,48.0,37.5,30.17,East,90,0.0,4.0,67,0.00,,,0.00,Weather View 32 v70,2013-05-10 05:01:00,
2013-05-09 23:06:00,48.0,37.9,30.17,East,90,2.0,4.0,68,0.00,,,0.00,Weather View 32 v70,2013-05-10 05:06:00,
2013-05-09 23:11:00,48.0,37.9,30.17,East,90,0.0,3.0,68,0.00,,,0.00,Weather View 32 v70,2013-05-10 05:11:00,
2013-05-09 23:16:00,48.0,37.9,30.17,East,90,0.0,3.0,68,0.00,,,0.00,Weather View 32 v70,2013-05-10 05:16:00,
2013-05-09 23:21:00,47.0,37.0,30.17,East,90,0.0,3.0,68,0.00,,,0.00,Weather View 32 v70,2013-05-10 05:21:00,
2013-05-09 23:26:00,47.0,37.0,30.17,East,90,0.0,3.0,68,0.00,,,0.00,Weather View 32 v70,2013-05-10 05:26:00,
2013-05-09 23:31:00,47.0,37.3,30.17,East,90,0.0,3.0,69,0.00,,,0.00,Weather View 32 v70,2013-05-10 05:31:00,
2013-05-09 23:36:00,47.0,37.7,30.17,East,90,0.0,3.0,70,0.00,,,0.00,Weather View 32 v70,2013-05-10 05:36:00,
2013-05-09 23:41:00,46.0,36.4,30.17,East,90,0.0,3.0,69,0.00,,,0.00,Weather View 32 v70,2013-05-10 05:41:00,
2013-05-09 23:46:00,46.0,36.8,30.17,East,90,0.0,3.0,70,0.00,,,0.00,Weather View 32 v70,2013-05-10 05:46:00,
2013-05-09 23:51:00,46.0,36.8,30.18,NNW,337,5.0,6.0,70,0.00,,,0.00,Weather View 32 v70,2013-05-10 05:51:00,
2013-05-09 23:56:00,46.0,35.3,30.18,North,360,5.0,8.0,66,0.00,,,0.00,Weather View 32 v70,2013-05-10 05:56:00,